ASA66 PANC-PACV
Flight info
| Callsign | ASA66 |
|---|---|
| Flight time | N/A |
| Altitude | 21000 |
| Route | NOEND JOH |
| Aircraft | B737/M-SDE2E3FGHIRWXY/LB1 |
Departure
| Time | 2026-05-08 07:05 |
|---|---|
| Airport | Ted Stevens Anchorage International Airport (PANC) |
Arrival
| Time | N/A |
|---|---|
| Airport | Merle K (Mudhole) Smith Airport (PACV) |
| Time | Latitude | Longitude | Altitude | Speed | Heading |
|---|---|---|---|---|---|
| 2026-05-08 06:41 | 61.17429 | -149.98386 | 136 ft | 0 kts | 84° |
| 2026-05-08 06:52 | 61.17428 | -149.98418 | 137 ft | 4 kts | 89° |
| 2026-05-08 06:52 | 61.17427 | -149.98472 | 137 ft | 3 kts | 82° |
| 2026-05-08 06:52 | 61.17425 | -149.98517 | 137 ft | 4 kts | 101° |
| 2026-05-08 06:52 | 61.17436 | -149.98560 | 137 ft | 4 kts | 150° |
| 2026-05-08 06:53 | 61.17458 | -149.98580 | 137 ft | 3 kts | 160° |
| 2026-05-08 06:53 | 61.17462 | -149.98582 | 137 ft | 0 kts | 160° |
| 2026-05-08 06:56 | 61.17456 | -149.98578 | 137 ft | 3 kts | 162° |
| 2026-05-08 06:56 | 61.17408 | -149.98581 | 137 ft | 10 kts | 199° |
| 2026-05-08 06:57 | 61.17341 | -149.98665 | 137 ft | 16 kts | 214° |
| 2026-05-08 06:57 | 61.17238 | -149.98774 | 137 ft | 17 kts | 178° |
| 2026-05-08 06:57 | 61.17132 | -149.98670 | 133 ft | 18 kts | 129° |
| 2026-05-08 06:57 | 61.17116 | -149.98415 | 132 ft | 19 kts | 89° |
| 2026-05-08 06:58 | 61.17117 | -149.98122 | 132 ft | 22 kts | 90° |
| 2026-05-08 06:58 | 61.17117 | -149.97867 | 132 ft | 22 kts | 90° |
| 2026-05-08 06:58 | 61.17116 | -149.97586 | 132 ft | 21 kts | 90° |
| 2026-05-08 06:58 | 61.17122 | -149.97284 | 132 ft | 21 kts | 84° |
| 2026-05-08 06:59 | 61.17126 | -149.96990 | 132 ft | 20 kts | 90° |
| 2026-05-08 06:59 | 61.17064 | -149.96809 | 132 ft | 17 kts | 180° |
| 2026-05-08 06:59 | 61.16947 | -149.96812 | 126 ft | 17 kts | 193° |
| 2026-05-08 06:59 | 61.16888 | -149.96982 | 132 ft | 12 kts | 247° |
| 2026-05-08 07:00 | 61.16877 | -149.97040 | 132 ft | 0 kts | 248° |
| 2026-05-08 07:02 | 61.16873 | -149.97060 | 135 ft | 4 kts | 248° |
| 2026-05-08 07:03 | 61.16866 | -149.97092 | 132 ft | 7 kts | 248° |
| 2026-05-08 07:03 | 61.16849 | -149.97182 | 132 ft | 11 kts | 248° |
| 2026-05-08 07:03 | 61.16797 | -149.97286 | 126 ft | 8 kts | 214° |
| 2026-05-08 07:03 | 61.16788 | -149.97398 | 130 ft | 8 kts | 269° |
| 2026-05-08 07:04 | 61.16788 | -149.97412 | 130 ft | 0 kts | 270° |
| 2026-05-08 07:04 | 61.16788 | -149.97413 | 130 ft | 1 kts | 270° |
| 2026-05-08 07:05 | 61.16787 | -149.98104 | 128 ft | 104 kts | 270° |
| 2026-05-08 07:05 | 61.16782 | -149.99412 | 151 ft | 166 kts | 268° |
| 2026-05-08 07:05 | 61.16781 | -150.02008 | 1098 ft | 184 kts | 268° |
| 2026-05-08 07:05 | 61.16735 | -150.04849 | 2232 ft | 209 kts | 265° |
| 2026-05-08 07:06 | 61.16450 | -150.07982 | 2719 ft | 239 kts | 245° |
| 2026-05-08 07:06 | 61.15435 | -150.10836 | 3304 ft | 250 kts | 211° |
| 2026-05-08 07:06 | 61.14039 | -150.11889 | 4246 ft | 247 kts | 183° |
| 2026-05-08 07:06 | 61.12896 | -150.11650 | 5005 ft | 244 kts | 162° |
| 2026-05-08 07:07 | 61.11455 | -150.09745 | 6223 ft | 243 kts | 134° |
| 2026-05-08 07:07 | 61.10794 | -150.07557 | 6973 ft | 251 kts | 113° |
| 2026-05-08 07:07 | 61.10628 | -150.06374 | 7270 ft | 258 kts | 104° |
| 2026-05-08 07:07 | 61.10557 | -150.05234 | 7508 ft | 263 kts | 97° |
| 2026-05-08 07:08 | 61.10560 | -150.03199 | 8108 ft | 264 kts | 90° |
| 2026-05-08 07:08 | 61.10701 | -149.99427 | 9230 ft | 270 kts | 90° |
| 2026-05-08 07:08 | 61.10787 | -149.96361 | 9975 ft | 276 kts | 90° |
| 2026-05-08 07:08 | 61.10834 | -149.94467 | 10383 ft | 282 kts | 90° |
| 2026-05-08 07:09 | 61.10871 | -149.92890 | 10587 ft | 292 kts | 90° |
| 2026-05-08 07:09 | 61.10968 | -149.88466 | 10840 ft | 323 kts | 90° |
| 2026-05-08 07:09 | 61.11068 | -149.83774 | 11402 ft | 341 kts | 90° |
| 2026-05-08 07:09 | 61.11164 | -149.79311 | 12161 ft | 349 kts | 90° |
| 2026-05-08 07:10 | 61.11266 | -149.74510 | 13026 ft | 356 kts | 90° |
| 2026-05-08 07:10 | 61.11374 | -149.69345 | 13934 ft | 364 kts | 90° |
| 2026-05-08 07:10 | 61.11481 | -149.64063 | 14761 ft | 371 kts | 90° |
| 2026-05-08 07:10 | 61.11587 | -149.58673 | 15606 ft | 379 kts | 91° |